sensor_id;sensor_type;location;lat;lon;timestamp;pressure;altitude;pressure_sealevel;temperature;humidity
67738;BME280;54534;43.612;1.572;2023-04-30T00:01:53;99193.91;;;21.02;57.46
67738;BME280;54534;43.612;1.572;2023-04-30T00:04:19;99179.72;;;21.02;57.80
67738;BME280;54534;43.612;1.572;2023-04-30T00:06:44;99187.84;;;21.00;57.69
67738;BME280;54534;43.612;1.572;2023-04-30T00:09:10;99191.50;;;20.99;57.91
67738;BME280;54534;43.612;1.572;2023-04-30T00:11:36;99181.66;;;20.99;57.74
67738;BME280;54534;43.612;1.572;2023-04-30T00:14:02;99183.50;;;20.99;57.69
67738;BME280;54534;43.612;1.572;2023-04-30T00:16:27;99182.66;;;20.98;57.70
67738;BME280;54534;43.612;1.572;2023-04-30T00:18:53;99181.78;;;20.98;57.70
67738;BME280;54534;43.612;1.572;2023-04-30T00:21:18;99188.00;;;20.98;57.73
67738;BME280;54534;43.612;1.572;2023-04-30T00:23:43;99188.13;;;20.97;57.75
67738;BME280;54534;43.612;1.572;2023-04-30T00:26:09;99180.94;;;20.97;57.60
67738;BME280;54534;43.612;1.572;2023-04-30T00:28:34;99179.13;;;20.98;57.90
67738;BME280;54534;43.612;1.572;2023-04-30T00:31:00;99165.34;;;20.93;57.81
67738;BME280;54534;43.612;1.572;2023-04-30T00:33:25;99170.25;;;20.97;57.68
67738;BME280;54534;43.612;1.572;2023-04-30T00:35:51;99165.06;;;20.96;57.64
67738;BME280;54534;43.612;1.572;2023-04-30T00:38:16;99159.72;;;20.96;57.57
67738;BME280;54534;43.612;1.572;2023-04-30T00:40:42;99158.00;;;20.95;57.68
67738;BME280;54534;43.612;1.572;2023-04-30T00:43:08;99162.50;;;20.94;57.58
67738;BME280;54534;43.612;1.572;2023-04-30T00:45:33;99155.34;;;20.95;57.65
67738;BME280;54534;43.612;1.572;2023-04-30T00:47:58;99142.97;;;20.94;57.62
67738;BME280;54534;43.612;1.572;2023-04-30T00:50:24;99138.59;;;20.93;57.53
67738;BME280;54534;43.612;1.572;2023-04-30T00:52:50;99149.47;;;20.91;57.76
67738;BME280;54534;43.612;1.572;2023-04-30T01:00:07;99143.09;;;20.92;57.85
67738;BME280;54534;43.612;1.572;2023-04-30T01:02:39;99136.22;;;20.89;57.66
67738;BME280;54534;43.612;1.572;2023-04-30T01:05:05;99149.56;;;20.89;57.68
67738;BME280;54534;43.612;1.572;2023-04-30T01:07:32;99140.88;;;20.87;57.90
67738;BME280;54534;43.612;1.572;2023-04-30T01:09:58;99142.56;;;20.88;57.64
67738;BME280;54534;43.612;1.572;2023-04-30T01:12:48;99140.72;;;20.89;57.70
67738;BME280;54534;43.612;1.572;2023-04-30T01:18:09;99140.88;;;20.87;57.73
67738;BME280;54534;43.612;1.572;2023-04-30T01:20:43;99133.69;;;20.88;57.55
67738;BME280;54534;43.612;1.572;2023-04-30T01:28:35;99129.31;;;20.87;57.86
67738;BME280;54534;43.612;1.572;2023-04-30T01:31:01;99125.97;;;20.85;57.69
67738;BME280;54534;43.612;1.572;2023-04-30T01:33:27;99123.13;;;20.86;57.69
67738;BME280;54534;43.612;1.572;2023-04-30T01:36:32;99135.66;;;20.86;57.65
67738;BME280;54534;43.612;1.572;2023-04-30T01:41:39;99127.78;;;20.84;57.74
67738;BME280;54534;43.612;1.572;2023-04-30T01:44:31;99123.44;;;20.83;57.67
67738;BME280;54534;43.612;1.572;2023-04-30T01:47:05;99122.59;;;20.83;57.82
67738;BME280;54534;43.612;1.572;2023-04-30T01:55:02;99124.56;;;20.81;57.85
67738;BME280;54534;43.612;1.572;2023-04-30T01:57:56;99127.34;;;20.79;57.75
67738;BME280;54534;43.612;1.572;2023-04-30T02:00:26;99131.72;;;20.80;57.83
67738;BME280;54534;43.612;1.572;2023-04-30T02:02:52;99138.75;;;20.81;57.51
67738;BME280;54534;43.612;1.572;2023-04-30T02:05:17;99137.06;;;20.80;57.79
67738;BME280;54534;43.612;1.572;2023-04-30T02:07:44;99133.53;;;20.80;57.74
67738;BME280;54534;43.612;1.572;2023-04-30T02:10:10;99132.69;;;20.79;57.84
67738;BME280;54534;43.612;1.572;2023-04-30T02:12:36;99132.56;;;20.81;57.59
67738;BME280;54534;43.612;1.572;2023-04-30T02:15:04;99133.53;;;20.80;57.72
67738;BME280;54534;43.612;1.572;2023-04-30T02:17:29;99140.72;;;20.79;57.59
67738;BME280;54534;43.612;1.572;2023-04-30T02:19:56;99132.69;;;20.79;57.62
67738;BME280;54534;43.612;1.572;2023-04-30T02:22:21;99126.50;;;20.78;57.76
67738;BME280;54534;43.612;1.572;2023-04-30T02:24:46;99133.81;;;20.76;57.59
67738;BME280;54534;43.612;1.572;2023-04-30T02:27:12;99127.63;;;20.76;57.55
67738;BME280;54534;43.612;1.572;2023-04-30T02:29:37;99128.47;;;20.76;57.61
67738;BME280;54534;43.612;1.572;2023-04-30T02:32:03;99132.97;;;20.76;57.71
67738;BME280;54534;43.612;1.572;2023-04-30T02:34:28;99136.66;;;20.75;57.63
67738;BME280;54534;43.612;1.572;2023-04-30T02:36:54;99133.97;;;20.75;57.37
67738;BME280;54534;43.612;1.572;2023-04-30T02:39:19;99135.78;;;20.74;57.28
67738;BME280;54534;43.612;1.572;2023-04-30T02:41:45;99142.97;;;20.74;57.56
67738;BME280;54534;43.612;1.572;2023-04-30T02:44:11;99137.78;;;20.72;57.57
67738;BME280;54534;43.612;1.572;2023-04-30T02:46:36;99138.63;;;20.73;57.56
67738;BME280;54534;43.612;1.572;2023-04-30T02:49:02;99141.28;;;20.73;57.52
67738;BME280;54534;43.612;1.572;2023-04-30T02:51:27;99139.44;;;20.73;57.69
67738;BME280;54534;43.612;1.572;2023-04-30T02:53:53;99148.31;;;20.74;57.48
67738;BME280;54534;43.612;1.572;2023-04-30T02:56:18;99147.47;;;20.73;57.41
67738;BME280;54534;43.612;1.572;2023-04-30T02:58:44;99147.59;;;20.72;57.33
67738;BME280;54534;43.612;1.572;2023-04-30T03:01:09;99144.09;;;20.71;57.56
67738;BME280;54534;43.612;1.572;2023-04-30T03:03:35;99151.13;;;20.72;57.51
67738;BME280;54534;43.612;1.572;2023-04-30T03:06:00;99150.44;;;20.70;57.30
67738;BME280;54534;43.612;1.572;2023-04-30T03:08:26;99154.19;;;20.67;57.50
67738;BME280;54534;43.612;1.572;2023-04-30T03:10:51;99154.06;;;20.69;57.39
67738;BME280;54534;43.612;1.572;2023-04-30T03:13:17;99156.75;;;20.69;57.23
67738;BME280;54534;43.612;1.572;2023-04-30T03:15:43;99157.72;;;20.68;57.35
67738;BME280;54534;43.612;1.572;2023-04-30T03:18:09;99165.72;;;20.68;57.22
67738;BME280;54534;43.612;1.572;2023-04-30T03:20:35;99168.41;;;20.68;57.32
67738;BME280;54534;43.612;1.572;2023-04-30T03:23:01;99172.06;;;20.67;57.25
67738;BME280;54534;43.612;1.572;2023-04-30T03:25:26;99168.56;;;20.66;57.13
67738;BME280;54534;43.612;1.572;2023-04-30T03:27:52;99166.72;;;20.67;57.24
67738;BME280;54534;43.612;1.572;2023-04-30T03:30:17;99173.91;;;20.66;57.63
67738;BME280;54534;43.612;1.572;2023-04-30T03:32:43;99171.22;;;20.66;57.06
67738;BME280;54534;43.612;1.572;2023-04-30T03:35:08;99169.41;;;20.67;57.12
67738;BME280;54534;43.612;1.572;2023-04-30T03:37:34;99172.34;;;20.64;57.23
67738;BME280;54534;43.612;1.572;2023-04-30T03:39:59;99171.22;;;20.66;57.22
67738;BME280;54534;43.612;1.572;2023-04-30T03:42:24;99167.69;;;20.66;56.99
67738;BME280;54534;43.612;1.572;2023-04-30T03:44:50;99169.53;;;20.65;57.15
67738;BME280;54534;43.612;1.572;2023-04-30T03:47:15;99170.38;;;20.66;57.25
67738;BME280;54534;43.612;1.572;2023-04-30T03:49:41;99175.88;;;20.64;57.07
67738;BME280;54534;43.612;1.572;2023-04-30T03:52:06;99175.72;;;20.66;56.99
67738;BME280;54534;43.612;1.572;2023-04-30T03:54:31;99166.16;;;20.63;56.87
67738;BME280;54534;43.612;1.572;2023-04-30T03:56:58;99177.69;;;20.64;56.99
67738;BME280;54534;43.612;1.572;2023-04-30T03:59:24;99182.03;;;20.65;57.00
67738;BME280;54534;43.612;1.572;2023-04-30T04:01:50;99178.53;;;20.64;56.92
67738;BME280;54534;43.612;1.572;2023-04-30T04:04:15;99171.50;;;20.63;57.07
67738;BME280;54534;43.612;1.572;2023-04-30T04:06:41;99177.69;;;20.64;56.94
67738;BME280;54534;43.612;1.572;2023-04-30T04:09:07;99179.50;;;20.63;57.15
67738;BME280;54534;43.612;1.572;2023-04-30T04:11:32;99176.00;;;20.63;57.01
67738;BME280;54534;43.612;1.572;2023-04-30T04:13:58;99174.31;;;20.62;57.09
67738;BME280;54534;43.612;1.572;2023-04-30T04:16:24;99176.00;;;20.63;56.80
67738;BME280;54534;43.612;1.572;2023-04-30T04:18:50;99165.31;;;20.63;56.78
67738;BME280;54534;43.612;1.572;2023-04-30T04:21:15;99174.31;;;20.62;56.81
67738;BME280;54534;43.612;1.572;2023-04-30T04:23:41;99183.16;;;20.62;56.95
67738;BME280;54534;43.612;1.572;2023-04-30T04:26:06;99179.78;;;20.60;56.97
67738;BME280;54534;43.612;1.572;2023-04-30T04:28:32;99187.66;;;20.62;56.88
67738;BME280;54534;43.612;1.572;2023-04-30T04:30:57;99190.34;;;20.62;56.86
67738;BME280;54534;43.612;1.572;2023-04-30T04:33:23;99185.97;;;20.61;56.90
67738;BME280;54534;43.612;1.572;2023-04-30T04:35:49;99191.16;;;20.62;56.73
67738;BME280;54534;43.612;1.572;2023-04-30T04:38:14;99187.66;;;20.62;56.78
67738;BME280;54534;43.612;1.572;2023-04-30T04:40:39;99189.50;;;20.61;56.78
67738;BME280;54534;43.612;1.572;2023-04-30T04:43:05;99182.44;;;20.60;56.71
67738;BME280;54534;43.612;1.572;2023-04-30T04:45:31;99190.34;;;20.62;56.68
67738;BME280;54534;43.612;1.572;2023-04-30T04:47:57;99194.84;;;20.61;56.50
67738;BME280;54534;43.612;1.572;2023-04-30T04:50:23;99196.66;;;20.61;56.71
67738;BME280;54534;43.612;1.572;2023-04-30T04:52:48;99202.84;;;20.61;56.78
67738;BME280;54534;43.612;1.572;2023-04-30T04:55:14;99198.47;;;20.60;56.74
67738;BME280;54534;43.612;1.572;2023-04-30T04:57:40;99200.28;;;20.60;56.69
67738;BME280;54534;43.612;1.572;2023-04-30T05:00:07;99195.09;;;20.58;56.76
67738;BME280;54534;43.612;1.572;2023-04-30T05:02:33;99199.31;;;20.61;56.84
67738;BME280;54534;43.612;1.572;2023-04-30T05:04:59;99197.63;;;20.60;56.68
67738;BME280;54534;43.612;1.572;2023-04-30T05:07:24;99204.81;;;20.59;56.67
67738;BME280;54534;43.612;1.572;2023-04-30T05:09:49;99195.09;;;20.58;56.71
67738;BME280;54534;43.612;1.572;2023-04-30T05:12:15;99208.31;;;20.60;56.74
67738;BME280;54534;43.612;1.572;2023-04-30T05:14:40;99202.25;;;20.58;56.68
67738;BME280;54534;43.612;1.572;2023-04-30T05:17:07;99196.91;;;20.58;56.61
67738;BME280;54534;43.612;1.572;2023-04-30T05:19:32;99204.94;;;20.58;56.61
67738;BME280;54534;43.612;1.572;2023-04-30T05:21:58;99208.59;;;20.56;56.79
67738;BME280;54534;43.612;1.572;2023-04-30T05:24:25;99212.25;;;20.55;56.70
67738;BME280;54534;43.612;1.572;2023-04-30T05:26:50;99221.13;;;20.56;56.65
67738;BME280;54534;43.612;1.572;2023-04-30T05:29:16;99224.63;;;20.56;56.60
67738;BME280;54534;43.612;1.572;2023-04-30T05:31:41;99221.22;;;20.54;56.84
67738;BME280;54534;43.612;1.572;2023-04-30T05:34:06;99229.13;;;20.56;56.64
67738;BME280;54534;43.612;1.572;2023-04-30T05:36:32;99231.91;;;20.54;56.71
67738;BME280;54534;43.612;1.572;2023-04-30T05:38:57;99230.25;;;20.53;56.69
67738;BME280;54534;43.612;1.572;2023-04-30T05:41:23;99235.59;;;20.53;56.65
67738;BME280;54534;43.612;1.572;2023-04-30T05:43:48;99233.88;;;20.52;56.63
67738;BME280;54534;43.612;1.572;2023-04-30T05:46:14;99233.03;;;20.52;56.59
67738;BME280;54534;43.612;1.572;2023-04-30T05:48:39;99234.88;;;20.51;56.63
67738;BME280;54534;43.612;1.572;2023-04-30T05:51:05;99230.50;;;20.50;56.73
67738;BME280;54534;43.612;1.572;2023-04-30T05:53:31;99239.38;;;20.51;56.49
67738;BME280;54534;43.612;1.572;2023-04-30T05:55:56;99241.19;;;20.50;56.32
67738;BME280;54534;43.612;1.572;2023-04-30T05:58:22;99241.19;;;20.50;56.50
67738;BME280;54534;43.612;1.572;2023-04-30T06:00:48;99244.72;;;20.51;56.51
67738;BME280;54534;43.612;1.572;2023-04-30T06:03:15;99239.22;;;20.52;56.59
67738;BME280;54534;43.612;1.572;2023-04-30T06:05:40;99242.91;;;20.51;56.51
67738;BME280;54534;43.612;1.572;2023-04-30T06:08:05;99247.38;;;20.51;56.44
67738;BME280;54534;43.612;1.572;2023-04-30T06:10:31;99250.06;;;20.51;56.45
67738;BME280;54534;43.612;1.572;2023-04-30T06:12:56;99256.38;;;20.50;56.50
67738;BME280;54534;43.612;1.572;2023-04-30T06:15:22;99254.53;;;20.50;56.29
67738;BME280;54534;43.612;1.572;2023-04-30T06:17:47;99251.03;;;20.50;56.55
67738;BME280;54534;43.612;1.572;2023-04-30T06:20:12;99252.84;;;20.49;56.33
67738;BME280;54534;43.612;1.572;2023-04-30T06:22:38;99261.00;;;20.48;56.39
67738;BME280;54534;43.612;1.572;2023-04-30T06:25:05;99261.84;;;20.48;56.50
67738;BME280;54534;43.612;1.572;2023-04-30T06:27:31;99267.19;;;20.48;56.37
67738;BME280;54534;43.612;1.572;2023-04-30T06:29:57;99264.66;;;20.47;56.26
67738;BME280;54534;43.612;1.572;2023-04-30T06:32:22;99267.31;;;20.47;56.50
67738;BME280;54534;43.612;1.572;2023-04-30T06:34:48;99261.97;;;20.47;56.43
67738;BME280;54534;43.612;1.572;2023-04-30T06:37:13;99268.16;;;20.47;56.60
67738;BME280;54534;43.612;1.572;2023-04-30T06:39:38;99264.53;;;20.48;56.55
67738;BME280;54534;43.612;1.572;2023-04-30T06:42:04;99263.69;;;20.48;56.46
67738;BME280;54534;43.612;1.572;2023-04-30T06:44:30;99268.16;;;20.47;56.35
67738;BME280;54534;43.612;1.572;2023-04-30T06:46:55;99278.84;;;20.47;56.54
67738;BME280;54534;43.612;1.572;2023-04-30T06:49:21;99273.50;;;20.47;56.33
67738;BME280;54534;43.612;1.572;2023-04-30T06:51:46;99277.19;;;20.46;56.53
67738;BME280;54534;43.612;1.572;2023-04-30T06:54:11;99282.38;;;20.48;56.30
67738;BME280;54534;43.612;1.572;2023-04-30T06:56:38;99278.84;;;20.47;56.42
67738;BME280;54534;43.612;1.572;2023-04-30T06:59:03;99284.19;;;20.47;56.45
67738;BME280;54534;43.612;1.572;2023-04-30T07:01:29;99282.53;;;20.46;56.28
67738;BME280;54534;43.612;1.572;2023-04-30T07:03:54;99279.97;;;20.44;56.67
67738;BME280;54534;43.612;1.572;2023-04-30T07:06:20;99293.19;;;20.46;56.53
67738;BME280;54534;43.612;1.572;2023-04-30T07:08:46;99295.03;;;20.45;56.35
67738;BME280;54534;43.612;1.572;2023-04-30T07:11:11;99293.19;;;20.46;56.36
67738;BME280;54534;43.612;1.572;2023-04-30T07:13:37;99298.53;;;20.46;56.36
67738;BME280;54534;43.612;1.572;2023-04-30T07:16:04;99298.53;;;20.46;56.36
67738;BME280;54534;43.612;1.572;2023-04-30T07:18:29;99300.22;;;20.47;56.53
67738;BME280;54534;43.612;1.572;2023-04-30T07:20:55;99305.56;;;20.47;56.35
67738;BME280;54534;43.612;1.572;2023-04-30T07:23:20;99304.69;;;20.47;56.49
67738;BME280;54534;43.612;1.572;2023-04-30T07:25:46;99310.91;;;20.47;56.46
67738;BME280;54534;43.612;1.572;2023-04-30T07:28:12;99314.41;;;20.48;56.45
67738;BME280;54534;43.612;1.572;2023-04-30T07:30:37;99307.38;;;20.47;56.41
67738;BME280;54534;43.612;1.572;2023-04-30T07:33:03;99306.66;;;20.44;56.58
67738;BME280;54534;43.612;1.572;2023-04-30T07:35:28;99311.03;;;20.45;56.42
67738;BME280;54534;43.612;1.572;2023-04-30T07:37:54;99316.38;;;20.45;56.47
67738;BME280;54534;43.612;1.572;2023-04-30T07:40:19;99312.88;;;20.45;56.41
67738;BME280;54534;43.612;1.572;2023-04-30T07:42:45;99315.38;;;20.47;56.51
67738;BME280;54534;43.612;1.572;2023-04-30T07:45:10;99307.53;;;20.45;56.49
67738;BME280;54534;43.612;1.572;2023-04-30T07:47:37;99314.56;;;20.46;56.44
67738;BME280;54534;43.612;1.572;2023-04-30T07:50:03;99317.25;;;20.46;56.32
67738;BME280;54534;43.612;1.572;2023-04-30T07:52:29;99315.38;;;20.47;56.28
67738;BME280;54534;43.612;1.572;2023-04-30T07:54:54;99316.38;;;20.45;56.29
67738;BME280;54534;43.612;1.572;2023-04-30T07:57:19;99324.25;;;20.47;56.34
67738;BME280;54534;43.612;1.572;2023-04-30T07:59:45;99317.09;;;20.48;56.34
67738;BME280;54534;43.612;1.572;2023-04-30T08:02:10;99319.91;;;20.46;56.22
67738;BME280;54534;43.612;1.572;2023-04-30T08:04:35;99329.59;;;20.47;56.38
67738;BME280;54534;43.612;1.572;2023-04-30T08:07:02;99322.56;;;20.46;56.34
67738;BME280;54534;43.612;1.572;2023-04-30T08:09:28;99326.06;;;20.47;56.40
67738;BME280;54534;43.612;1.572;2023-04-30T08:11:54;99326.91;;;20.47;56.33
67738;BME280;54534;43.612;1.572;2023-04-30T08:14:19;99334.94;;;20.47;56.49
67738;BME280;54534;43.612;1.572;2023-04-30T08:16:45;99335.94;;;20.46;56.57
67738;BME280;54534;43.612;1.572;2023-04-30T08:19:11;99342.94;;;20.47;56.42
67738;BME280;54534;43.612;1.572;2023-04-30T08:21:37;99339.56;;;20.45;56.48
67738;BME280;54534;43.612;1.572;2023-04-30T08:24:02;99346.63;;;20.46;56.28
67738;BME280;54534;43.612;1.572;2023-04-30T08:26:28;99343.09;;;20.45;56.33
67738;BME280;54534;43.612;1.572;2023-04-30T08:28:53;99350.25;;;20.45;56.35
67738;BME280;54534;43.612;1.572;2023-04-30T08:31:19;99353.06;;;20.43;56.37
67738;BME280;54534;43.612;1.572;2023-04-30T08:33:44;99350.25;;;20.45;56.19
67738;BME280;54534;43.612;1.572;2023-04-30T08:36:10;99354.75;;;20.44;56.74
67738;BME280;54534;43.612;1.572;2023-04-30T08:38:35;99354.75;;;20.44;56.41
67738;BME280;54534;43.612;1.572;2023-04-30T08:41:21;99361.09;;;20.43;56.17
67738;BME280;54534;43.612;1.572;2023-04-30T08:43:52;99361.91;;;20.44;56.30
67738;BME280;54534;43.612;1.572;2023-04-30T08:46:21;99364.56;;;20.44;56.14
67738;BME280;54534;43.612;1.572;2023-04-30T08:48:48;99359.53;;;20.41;56.08
67738;BME280;54534;43.612;1.572;2023-04-30T08:51:14;99370.91;;;20.43;56.28
67738;BME280;54534;43.612;1.572;2023-04-30T08:53:41;99369.91;;;20.44;56.38
67738;BME280;54534;43.612;1.572;2023-04-30T08:56:09;99377.94;;;20.44;56.07
67738;BME280;54534;43.612;1.572;2023-04-30T08:58:34;99370.91;;;20.43;56.23
67738;BME280;54534;43.612;1.572;2023-04-30T09:01:00;99368.25;;;20.43;56.27
67738;BME280;54534;43.612;1.572;2023-04-30T09:03:26;99375.53;;;20.41;56.33
67738;BME280;54534;43.612;1.572;2023-04-30T09:05:53;99366.53;;;20.42;56.36
67738;BME280;54534;43.612;1.572;2023-04-30T09:08:39;99378.06;;;20.42;56.20
67738;BME280;54534;43.612;1.572;2023-04-30T09:11:26;99378.06;;;20.42;56.24
67738;BME280;54534;43.612;1.572;2023-04-30T09:13:53;99370.19;;;20.41;56.23
67738;BME280;54534;43.612;1.572;2023-04-30T09:16:20;99373.00;;;20.39;56.13
67738;BME280;54534;43.612;1.572;2023-04-30T09:18:46;99376.38;;;20.41;56.25
67738;BME280;54534;43.612;1.572;2023-04-30T09:21:12;99380.03;;;20.40;56.24
67738;BME280;54534;43.612;1.572;2023-04-30T09:23:56;99383.56;;;20.41;56.22
67738;BME280;54534;43.612;1.572;2023-04-30T09:26:29;99385.38;;;20.40;56.14
67738;BME280;54534;43.612;1.572;2023-04-30T09:28:56;99385.22;;;20.42;56.22
67738;BME280;54534;43.612;1.572;2023-04-30T09:31:22;99382.81;;;20.39;56.17
67738;BME280;54534;43.612;1.572;2023-04-30T09:33:49;99388.03;;;20.40;56.22
67738;BME280;54534;43.612;1.572;2023-04-30T09:36:14;99389.88;;;20.40;56.15
67738;BME280;54534;43.612;1.572;2023-04-30T09:38:40;99395.19;;;20.40;56.16
67738;BME280;54534;43.612;1.572;2023-04-30T09:41:10;99386.22;;;20.41;56.18
67738;BME280;54534;43.612;1.572;2023-04-30T09:43:45;99381.00;;;20.39;56.19
67738;BME280;54534;43.612;1.572;2023-04-30T09:46:10;99381.00;;;20.39;56.12
67738;BME280;54534;43.612;1.572;2023-04-30T09:48:40;99382.69;;;20.40;56.11
67738;BME280;54534;43.612;1.572;2023-04-30T09:51:07;99381.84;;;20.40;56.02
67738;BME280;54534;43.612;1.572;2023-04-30T09:53:34;99384.53;;;20.40;56.10
67738;BME280;54534;43.612;1.572;2023-04-30T09:56:06;99396.06;;;20.40;56.00
67738;BME280;54534;43.612;1.572;2023-04-30T09:58:31;99384.78;;;20.37;56.20
67738;BME280;54534;43.612;1.572;2023-04-30T10:01:01;99388.16;;;20.39;56.17
67738;BME280;54534;43.612;1.572;2023-04-30T10:03:30;99390.81;;;20.39;56.17
67738;BME280;54534;43.612;1.572;2023-04-30T10:05:56;99386.34;;;20.39;56.02
67738;BME280;54534;43.612;1.572;2023-04-30T10:08:39;99389.88;;;20.40;56.07
67738;BME280;54534;43.612;1.572;2023-04-30T10:11:09;99382.00;;;20.38;56.23
67738;BME280;54534;43.612;1.572;2023-04-30T10:14:02;99388.16;;;20.39;56.39
67738;BME280;54534;43.612;1.572;2023-04-30T10:19:33;99388.16;;;20.39;56.25
67738;BME280;54534;43.612;1.572;2023-04-30T10:22:00;99387.34;;;20.38;56.28
67738;BME280;54534;43.612;1.572;2023-04-30T10:24:26;99389.16;;;20.38;56.17
67738;BME280;54534;43.612;1.572;2023-04-30T10:26:52;99390.81;;;20.39;56.16
67738;BME280;54534;43.612;1.572;2023-04-30T10:29:18;99394.34;;;20.39;56.23
67738;BME280;54534;43.612;1.572;2023-04-30T10:31:46;99394.25;;;20.41;56.15
67738;BME280;54534;43.612;1.572;2023-04-30T10:34:25;99390.72;;;20.40;55.64
67738;BME280;54534;43.612;1.572;2023-04-30T10:36:59;99396.06;;;20.40;55.99
67738;BME280;54534;43.612;1.572;2023-04-30T10:39:28;99390.72;;;20.40;55.85
67738;BME280;54534;43.612;1.572;2023-04-30T10:42:02;99394.25;;;20.41;55.92
67738;BME280;54534;43.612;1.572;2023-04-30T10:44:31;99400.41;;;20.41;55.78
67738;BME280;54534;43.612;1.572;2023-04-30T10:46:58;99393.25;;;20.42;56.06
67738;BME280;54534;43.612;1.572;2023-04-30T10:49:25;99390.72;;;20.40;55.71
67738;BME280;54534;43.612;1.572;2023-04-30T10:51:51;99382.81;;;20.39;55.74
67738;BME280;54534;43.612;1.572;2023-04-30T10:54:24;99385.50;;;20.39;55.54
67738;BME280;54534;43.612;1.572;2023-04-30T10:56:52;99386.47;;;20.38;55.70
67738;BME280;54534;43.612;1.572;2023-04-30T10:59:17;99383.81;;;20.38;55.75
67738;BME280;54534;43.612;1.572;2023-04-30T11:02:00;99380.16;;;20.39;55.64
67738;BME280;54534;43.612;1.572;2023-04-30T11:04:26;99386.47;;;20.38;55.73
67738;BME280;54534;43.612;1.572;2023-04-30T11:09:42;99374.09;;;20.37;55.57
67738;BME280;54534;43.612;1.572;2023-04-30T11:12:15;99376.78;;;20.37;55.61
67738;BME280;54534;43.612;1.572;2023-04-30T11:14:44;99371.44;;;20.37;55.98
67738;BME280;54534;43.612;1.572;2023-04-30T11:17:12;99370.47;;;20.38;55.69
67738;BME280;54534;43.612;1.572;2023-04-30T11:19:48;99369.59;;;20.37;55.74
67738;BME280;54534;43.612;1.572;2023-04-30T11:22:16;99374.09;;;20.37;55.86
67738;BME280;54534;43.612;1.572;2023-04-30T11:25:08;99375.81;;;20.38;55.60
67738;BME280;54534;43.612;1.572;2023-04-30T11:27:36;99373.97;;;20.38;55.84
67738;BME280;54534;43.612;1.572;2023-04-30T11:30:03;99372.28;;;20.37;55.83
67738;BME280;54534;43.612;1.572;2023-04-30T11:32:37;99374.81;;;20.39;55.91
67738;BME280;54534;43.612;1.572;2023-04-30T11:35:04;99368.66;;;20.38;55.91
67738;BME280;54534;43.612;1.572;2023-04-30T11:37:35;99368.66;;;20.38;55.81
67738;BME280;54534;43.612;1.572;2023-04-30T11:40:06;99372.13;;;20.39;55.93
67738;BME280;54534;43.612;1.572;2023-04-30T11:42:32;99370.47;;;20.38;55.76
67738;BME280;54534;43.612;1.572;2023-04-30T11:45:12;99363.31;;;20.38;55.80
67738;BME280;54534;43.612;1.572;2023-04-30T11:47:56;99360.63;;;20.38;55.73
67738;BME280;54534;43.612;1.572;2023-04-30T11:50:26;99361.44;;;20.39;55.80
67738;BME280;54534;43.612;1.572;2023-04-30T11:52:57;99362.31;;;20.39;55.80
67738;BME280;54534;43.612;1.572;2023-04-30T11:55:24;99366.78;;;20.39;55.84
67738;BME280;54534;43.612;1.572;2023-04-30T11:57:52;99369.34;;;20.40;55.86
67738;BME280;54534;43.612;1.572;2023-04-30T12:00:20;99359.06;;;20.36;55.99
67738;BME280;54534;43.612;1.572;2023-04-30T12:02:47;99361.44;;;20.39;55.95
67738;BME280;54534;43.612;1.572;2023-04-30T12:05:17;99366.78;;;20.39;55.79
67738;BME280;54534;43.612;1.572;2023-04-30T12:07:49;99360.63;;;20.38;55.72
67738;BME280;54534;43.612;1.572;2023-04-30T12:10:15;99353.59;;;20.37;55.95
67738;BME280;54534;43.612;1.572;2023-04-30T12:12:42;99351.63;;;20.39;55.89
67738;BME280;54534;43.612;1.572;2023-04-30T12:15:21;99343.63;;;20.39;55.71
67738;BME280;54534;43.612;1.572;2023-04-30T12:17:50;99355.28;;;20.38;55.67
67738;BME280;54534;43.612;1.572;2023-04-30T12:20:16;99355.28;;;20.38;55.69
67738;BME280;54534;43.612;1.572;2023-04-30T12:22:43;99353.59;;;20.37;55.66
67738;BME280;54534;43.612;1.572;2023-04-30T12:25:14;99358.94;;;20.37;55.83
67738;BME280;54534;43.612;1.572;2023-04-30T12:27:41;99351.88;;;20.36;55.77
67738;BME280;54534;43.612;1.572;2023-04-30T12:30:08;99357.09;;;20.38;55.67
67738;BME280;54534;43.612;1.572;2023-04-30T12:35:03;99353.00;;;20.33;55.62
67738;BME280;54534;43.612;1.572;2023-04-30T12:37:29;99343.16;;;20.34;55.70
67738;BME280;54534;43.612;1.572;2023-04-30T12:39:55;99339.53;;;20.35;55.70
67738;BME280;54534;43.612;1.572;2023-04-30T12:42:20;99332.63;;;20.32;55.67
67738;BME280;54534;43.612;1.572;2023-04-30T12:44:45;99337.81;;;20.34;55.72
67738;BME280;54534;43.612;1.572;2023-04-30T12:47:13;99344.97;;;20.33;55.72
67738;BME280;54534;43.612;1.572;2023-04-30T12:49:39;99341.50;;;20.33;55.84
67738;BME280;54534;43.612;1.572;2023-04-30T12:52:09;99346.81;;;20.33;55.81
67738;BME280;54534;43.612;1.572;2023-04-30T12:54:36;99341.50;;;20.33;55.83
67738;BME280;54534;43.612;1.572;2023-04-30T12:57:09;99346.69;;;20.34;55.94
67738;BME280;54534;43.612;1.572;2023-04-30T13:02:16;99343.16;;;20.34;56.10
67738;BME280;54534;43.612;1.572;2023-04-30T13:04:42;99329.81;;;20.34;56.09
67738;BME280;54534;43.612;1.572;2023-04-30T13:07:08;99330.81;;;20.33;56.18
67738;BME280;54534;43.612;1.572;2023-04-30T13:09:35;99331.63;;;20.33;56.12
67738;BME280;54534;43.612;1.572;2023-04-30T13:12:01;99329.81;;;20.34;56.05
67738;BME280;54534;43.612;1.572;2023-04-30T13:14:27;99327.28;;;20.32;56.01
67738;BME280;54534;43.612;1.572;2023-04-30T13:16:53;99326.28;;;20.33;56.10
67738;BME280;54534;43.612;1.572;2023-04-30T13:19:19;99321.94;;;20.32;56.08
67738;BME280;54534;43.612;1.572;2023-04-30T13:21:44;99325.47;;;20.33;56.05
67738;BME280;54534;43.612;1.572;2023-04-30T13:24:10;99328.97;;;20.33;56.12
67738;BME280;54534;43.612;1.572;2023-04-30T13:26:35;99321.81;;;20.34;55.93
67738;BME280;54534;43.612;1.572;2023-04-30T13:29:01;99321.81;;;20.34;56.21
67738;BME280;54534;43.612;1.572;2023-04-30T13:31:26;99310.25;;;20.33;55.79
67738;BME280;54534;43.612;1.572;2023-04-30T13:33:52;99320.84;;;20.35;56.00